sensor_id;sensor_type;location;lat;lon;timestamp;P1;durP1;ratioP1;P2;durP2;ratioP2
67564;SDS011;54393;53.556;49.216;2023-06-19T00:02:22;1.20;;;0.90;;
67564;SDS011;54393;53.556;49.216;2023-06-19T00:04:48;0.75;;;0.75;;
67564;SDS011;54393;53.556;49.216;2023-06-19T00:07:15;0.90;;;0.90;;
67564;SDS011;54393;53.556;49.216;2023-06-19T00:09:41;0.80;;;0.80;;
67564;SDS011;54393;53.556;49.216;2023-06-19T00:12:08;0.90;;;0.90;;
67564;SDS011;54393;53.556;49.216;2023-06-19T00:14:34;0.95;;;0.95;;
67564;SDS011;54393;53.556;49.216;2023-06-19T00:17:01;0.98;;;0.98;;
67564;SDS011;54393;53.556;49.216;2023-06-19T00:19:28;0.90;;;0.85;;
67564;SDS011;54393;53.556;49.216;2023-06-19T00:21:54;0.90;;;0.90;;
67564;SDS011;54393;53.556;49.216;2023-06-19T00:24:22;0.75;;;0.75;;
67564;SDS011;54393;53.556;49.216;2023-06-19T00:26:49;0.95;;;0.90;;
67564;SDS011;54393;53.556;49.216;2023-06-19T00:29:15;1.05;;;1.00;;
67564;SDS011;54393;53.556;49.216;2023-06-19T00:31:42;2.03;;;0.88;;
67564;SDS011;54393;53.556;49.216;2023-06-19T00:34:08;0.90;;;0.90;;
67564;SDS011;54393;53.556;49.216;2023-06-19T00:36:35;0.70;;;0.70;;
67564;SDS011;54393;53.556;49.216;2023-06-19T00:39:06;0.88;;;0.88;;
67564;SDS011;54393;53.556;49.216;2023-06-19T00:41:34;0.77;;;0.77;;
67564;SDS011;54393;53.556;49.216;2023-06-19T00:44:01;1.33;;;0.85;;
67564;SDS011;54393;53.556;49.216;2023-06-19T00:46:28;1.20;;;1.12;;
67564;SDS011;54393;53.556;49.216;2023-06-19T00:48:54;1.58;;;0.80;;
67564;SDS011;54393;53.556;49.216;2023-06-19T00:51:21;0.88;;;0.88;;
67564;SDS011;54393;53.556;49.216;2023-06-19T00:53:47;0.75;;;0.75;;
67564;SDS011;54393;53.556;49.216;2023-06-19T00:56:13;0.95;;;0.80;;
67564;SDS011;54393;53.556;49.216;2023-06-19T00:58:43;0.95;;;0.85;;
67564;SDS011;54393;53.556;49.216;2023-06-19T01:01:10;0.95;;;0.82;;
67564;SDS011;54393;53.556;49.216;2023-06-19T01:03:36;0.95;;;0.90;;
67564;SDS011;54393;53.556;49.216;2023-06-19T01:06:05;0.75;;;0.70;;
67564;SDS011;54393;53.556;49.216;2023-06-19T01:08:56;1.10;;;1.00;;
67564;SDS011;54393;53.556;49.216;2023-06-19T01:11:29;1.15;;;0.88;;
67564;SDS011;54393;53.556;49.216;2023-06-19T01:14:09;0.80;;;0.80;;
67564;SDS011;54393;53.556;49.216;2023-06-19T01:16:39;1.62;;;0.80;;
67564;SDS011;54393;53.556;49.216;2023-06-19T01:19:08;0.95;;;0.77;;
67564;SDS011;54393;53.556;49.216;2023-06-19T01:21:36;0.70;;;0.60;;
67564;SDS011;54393;53.556;49.216;2023-06-19T01:24:03;0.70;;;0.70;;
67564;SDS011;54393;53.556;49.216;2023-06-19T01:26:30;1.10;;;1.00;;
67564;SDS011;54393;53.556;49.216;2023-06-19T01:28:56;0.73;;;0.73;;
67564;SDS011;54393;53.556;49.216;2023-06-19T01:31:25;0.98;;;0.90;;
67564;SDS011;54393;53.556;49.216;2023-06-19T01:34:03;0.70;;;0.70;;
67564;SDS011;54393;53.556;49.216;2023-06-19T01:36:31;0.80;;;0.62;;
67564;SDS011;54393;53.556;49.216;2023-06-19T01:38:58;0.80;;;0.80;;
67564;SDS011;54393;53.556;49.216;2023-06-19T01:41:24;0.90;;;0.90;;
67564;SDS011;54393;53.556;49.216;2023-06-19T01:43:52;0.70;;;0.70;;
67564;SDS011;54393;53.556;49.216;2023-06-19T01:46:19;0.70;;;0.70;;
67564;SDS011;54393;53.556;49.216;2023-06-19T01:48:45;1.02;;;0.90;;
67564;SDS011;54393;53.556;49.216;2023-06-19T01:51:12;0.75;;;0.75;;
67564;SDS011;54393;53.556;49.216;2023-06-19T01:53:38;1.05;;;1.05;;
67564;SDS011;54393;53.556;49.216;2023-06-19T01:56:05;0.62;;;0.62;;
67564;SDS011;54393;53.556;49.216;2023-06-19T01:58:32;0.80;;;0.80;;
67564;SDS011;54393;53.556;49.216;2023-06-19T02:00:58;0.88;;;0.88;;
67564;SDS011;54393;53.556;49.216;2023-06-19T02:03:24;0.65;;;0.65;;
67564;SDS011;54393;53.556;49.216;2023-06-19T02:05:51;1.10;;;1.00;;
67564;SDS011;54393;53.556;49.216;2023-06-19T02:08:17;0.93;;;0.93;;
67564;SDS011;54393;53.556;49.216;2023-06-19T02:10:44;0.90;;;0.90;;
67564;SDS011;54393;53.556;49.216;2023-06-19T02:13:11;0.73;;;0.73;;
67564;SDS011;54393;53.556;49.216;2023-06-19T02:15:37;0.73;;;0.73;;
67564;SDS011;54393;53.556;49.216;2023-06-19T02:18:03;0.70;;;0.70;;
67564;SDS011;54393;53.556;49.216;2023-06-19T02:20:30;0.88;;;0.88;;
67564;SDS011;54393;53.556;49.216;2023-06-19T02:22:57;0.75;;;0.75;;
67564;SDS011;54393;53.556;49.216;2023-06-19T02:25:23;0.90;;;0.90;;
67564;SDS011;54393;53.556;49.216;2023-06-19T02:27:50;0.80;;;0.80;;
67564;SDS011;54393;53.556;49.216;2023-06-19T02:30:16;0.80;;;0.80;;
67564;SDS011;54393;53.556;49.216;2023-06-19T02:32:43;0.80;;;0.60;;
67564;SDS011;54393;53.556;49.216;2023-06-19T02:35:10;0.70;;;0.70;;
67564;SDS011;54393;53.556;49.216;2023-06-19T02:37:37;0.82;;;0.82;;
67564;SDS011;54393;53.556;49.216;2023-06-19T02:40:04;0.82;;;0.80;;
67564;SDS011;54393;53.556;49.216;2023-06-19T02:42:31;0.77;;;0.77;;
67564;SDS011;54393;53.556;49.216;2023-06-19T02:44:58;0.90;;;0.90;;
67564;SDS011;54393;53.556;49.216;2023-06-19T02:47:31;0.90;;;0.90;;
67564;SDS011;54393;53.556;49.216;2023-06-19T02:50:01;0.80;;;0.80;;
67564;SDS011;54393;53.556;49.216;2023-06-19T02:52:29;0.90;;;0.90;;
67564;SDS011;54393;53.556;49.216;2023-06-19T02:54:55;1.85;;;1.10;;
67564;SDS011;54393;53.556;49.216;2023-06-19T02:57:22;0.70;;;0.70;;
67564;SDS011;54393;53.556;49.216;2023-06-19T02:59:48;0.85;;;0.85;;
67564;SDS011;54393;53.556;49.216;2023-06-19T03:02:15;0.90;;;0.90;;
67564;SDS011;54393;53.556;49.216;2023-06-19T03:04:42;0.60;;;0.60;;
67564;SDS011;54393;53.556;49.216;2023-06-19T03:07:09;1.10;;;1.10;;
67564;SDS011;54393;53.556;49.216;2023-06-19T03:09:36;0.73;;;0.73;;
67564;SDS011;54393;53.556;49.216;2023-06-19T03:12:02;1.02;;;0.98;;
67564;SDS011;54393;53.556;49.216;2023-06-19T03:14:29;0.80;;;0.80;;
67564;SDS011;54393;53.556;49.216;2023-06-19T03:16:56;0.93;;;0.80;;
67564;SDS011;54393;53.556;49.216;2023-06-19T03:19:22;1.00;;;0.90;;
67564;SDS011;54393;53.556;49.216;2023-06-19T03:21:49;1.40;;;0.82;;
67564;SDS011;54393;53.556;49.216;2023-06-19T03:24:15;0.90;;;0.90;;
67564;SDS011;54393;53.556;49.216;2023-06-19T03:26:42;1.08;;;1.08;;
67564;SDS011;54393;53.556;49.216;2023-06-19T03:29:08;0.90;;;0.90;;
67564;SDS011;54393;53.556;49.216;2023-06-19T03:31:34;1.35;;;0.85;;
67564;SDS011;54393;53.556;49.216;2023-06-19T03:34:01;1.00;;;1.00;;
67564;SDS011;54393;53.556;49.216;2023-06-19T03:36:27;0.82;;;0.82;;
67564;SDS011;54393;53.556;49.216;2023-06-19T03:38:54;0.70;;;0.70;;
67564;SDS011;54393;53.556;49.216;2023-06-19T03:41:20;1.48;;;0.60;;
67564;SDS011;54393;53.556;49.216;2023-06-19T03:43:47;1.15;;;1.00;;
67564;SDS011;54393;53.556;49.216;2023-06-19T03:46:13;0.93;;;0.93;;
67564;SDS011;54393;53.556;49.216;2023-06-19T03:48:40;0.90;;;0.90;;
67564;SDS011;54393;53.556;49.216;2023-06-19T03:51:06;1.10;;;0.80;;
67564;SDS011;54393;53.556;49.216;2023-06-19T03:53:33;1.00;;;1.00;;
67564;SDS011;54393;53.556;49.216;2023-06-19T03:55:59;0.70;;;0.70;;
67564;SDS011;54393;53.556;49.216;2023-06-19T03:58:26;0.70;;;0.70;;
67564;SDS011;54393;53.556;49.216;2023-06-19T04:00:52;0.80;;;0.80;;
67564;SDS011;54393;53.556;49.216;2023-06-19T04:03:18;1.10;;;1.00;;
67564;SDS011;54393;53.556;49.216;2023-06-19T04:05:45;0.77;;;0.77;;
67564;SDS011;54393;53.556;49.216;2023-06-19T04:08:11;0.93;;;0.93;;
67564;SDS011;54393;53.556;49.216;2023-06-19T04:10:38;0.73;;;0.70;;
67564;SDS011;54393;53.556;49.216;2023-06-19T04:13:04;0.90;;;0.90;;
67564;SDS011;54393;53.556;49.216;2023-06-19T04:15:32;1.33;;;0.98;;
67564;SDS011;54393;53.556;49.216;2023-06-19T04:18:00;1.27;;;1.17;;
67564;SDS011;54393;53.556;49.216;2023-06-19T04:20:27;0.73;;;0.73;;
67564;SDS011;54393;53.556;49.216;2023-06-19T04:22:53;1.00;;;1.00;;
67564;SDS011;54393;53.556;49.216;2023-06-19T04:25:20;1.05;;;1.00;;
67564;SDS011;54393;53.556;49.216;2023-06-19T04:27:46;0.90;;;0.90;;
67564;SDS011;54393;53.556;49.216;2023-06-19T04:30:13;0.80;;;0.80;;
67564;SDS011;54393;53.556;49.216;2023-06-19T04:32:39;1.08;;;0.98;;
67564;SDS011;54393;53.556;49.216;2023-06-19T04:35:06;1.08;;;0.98;;
67564;SDS011;54393;53.556;49.216;2023-06-19T04:37:33;0.90;;;0.90;;
67564;SDS011;54393;53.556;49.216;2023-06-19T04:40:00;0.85;;;0.85;;
67564;SDS011;54393;53.556;49.216;2023-06-19T04:42:27;1.25;;;0.80;;
67564;SDS011;54393;53.556;49.216;2023-06-19T04:44:53;0.90;;;0.70;;
67564;SDS011;54393;53.556;49.216;2023-06-19T04:47:22;0.77;;;0.77;;
67564;SDS011;54393;53.556;49.216;2023-06-19T04:49:49;0.77;;;0.77;;
67564;SDS011;54393;53.556;49.216;2023-06-19T04:52:15;0.90;;;0.90;;
67564;SDS011;54393;53.556;49.216;2023-06-19T04:54:43;0.88;;;0.88;;
67564;SDS011;54393;53.556;49.216;2023-06-19T04:57:10;0.88;;;0.88;;
67564;SDS011;54393;53.556;49.216;2023-06-19T04:59:36;0.77;;;0.70;;
67564;SDS011;54393;53.556;49.216;2023-06-19T05:02:03;0.82;;;0.82;;
67564;SDS011;54393;53.556;49.216;2023-06-19T05:04:30;0.88;;;0.88;;
67564;SDS011;54393;53.556;49.216;2023-06-19T05:06:58;1.00;;;0.80;;
67564;SDS011;54393;53.556;49.216;2023-06-19T05:09:26;0.75;;;0.75;;
67564;SDS011;54393;53.556;49.216;2023-06-19T05:11:52;0.85;;;0.85;;
67564;SDS011;54393;53.556;49.216;2023-06-19T05:14:18;0.80;;;0.80;;
67564;SDS011;54393;53.556;49.216;2023-06-19T05:16:45;0.77;;;0.77;;
67564;SDS011;54393;53.556;49.216;2023-06-19T05:19:11;0.82;;;0.82;;
67564;SDS011;54393;53.556;49.216;2023-06-19T05:21:38;1.02;;;0.88;;
67564;SDS011;54393;53.556;49.216;2023-06-19T05:24:04;0.70;;;0.70;;
67564;SDS011;54393;53.556;49.216;2023-06-19T05:26:32;0.95;;;0.95;;
67564;SDS011;54393;53.556;49.216;2023-06-19T05:28:58;1.10;;;1.00;;
67564;SDS011;54393;53.556;49.216;2023-06-19T05:31:25;1.00;;;0.93;;
67564;SDS011;54393;53.556;49.216;2023-06-19T05:33:51;0.70;;;0.70;;
67564;SDS011;54393;53.556;49.216;2023-06-19T05:36:18;0.70;;;0.70;;
67564;SDS011;54393;53.556;49.216;2023-06-19T05:38:45;0.98;;;0.95;;
67564;SDS011;54393;53.556;49.216;2023-06-19T05:41:13;0.77;;;0.77;;
67564;SDS011;54393;53.556;49.216;2023-06-19T05:43:41;1.05;;;0.98;;
67564;SDS011;54393;53.556;49.216;2023-06-19T05:46:08;0.70;;;0.70;;
67564;SDS011;54393;53.556;49.216;2023-06-19T05:48:34;0.70;;;0.70;;
67564;SDS011;54393;53.556;49.216;2023-06-19T05:51:01;1.17;;;0.82;;
67564;SDS011;54393;53.556;49.216;2023-06-19T05:53:27;0.60;;;0.60;;
67564;SDS011;54393;53.556;49.216;2023-06-19T05:55:56;0.88;;;0.88;;
67564;SDS011;54393;53.556;49.216;2023-06-19T05:58:23;0.90;;;0.90;;
67564;SDS011;54393;53.556;49.216;2023-06-19T06:00:51;1.20;;;1.00;;
67564;SDS011;54393;53.556;49.216;2023-06-19T06:03:25;0.90;;;0.90;;
67564;SDS011;54393;53.556;49.216;2023-06-19T06:05:53;0.95;;;0.77;;
67564;SDS011;54393;53.556;49.216;2023-06-19T06:08:19;0.85;;;0.85;;
67564;SDS011;54393;53.556;49.216;2023-06-19T06:10:46;0.80;;;0.80;;
67564;SDS011;54393;53.556;49.216;2023-06-19T06:13:12;1.05;;;0.95;;
67564;SDS011;54393;53.556;49.216;2023-06-19T06:15:39;0.90;;;0.90;;
67564;SDS011;54393;53.556;49.216;2023-06-19T06:18:05;1.95;;;0.80;;
67564;SDS011;54393;53.556;49.216;2023-06-19T06:20:31;1.20;;;1.10;;
67564;SDS011;54393;53.556;49.216;2023-06-19T06:22:58;0.70;;;0.70;;
67564;SDS011;54393;53.556;49.216;2023-06-19T06:25:24;0.85;;;0.80;;
67564;SDS011;54393;53.556;49.216;2023-06-19T06:27:51;1.08;;;0.98;;
67564;SDS011;54393;53.556;49.216;2023-06-19T06:30:17;0.90;;;0.90;;
67564;SDS011;54393;53.556;49.216;2023-06-19T06:32:44;0.98;;;0.90;;
67564;SDS011;54393;53.556;49.216;2023-06-19T06:35:10;0.85;;;0.85;;
67564;SDS011;54393;53.556;49.216;2023-06-19T06:37:37;1.12;;;1.05;;
67564;SDS011;54393;53.556;49.216;2023-06-19T06:40:04;1.02;;;0.98;;
67564;SDS011;54393;53.556;49.216;2023-06-19T06:42:34;0.75;;;0.75;;
67564;SDS011;54393;53.556;49.216;2023-06-19T06:45:01;1.12;;;0.98;;
67564;SDS011;54393;53.556;49.216;2023-06-19T06:47:27;3.50;;;0.88;;
67564;SDS011;54393;53.556;49.216;2023-06-19T06:49:53;0.90;;;0.90;;
67564;SDS011;54393;53.556;49.216;2023-06-19T06:52:20;1.20;;;1.10;;
67564;SDS011;54393;53.556;49.216;2023-06-19T06:54:46;0.88;;;0.88;;
67564;SDS011;54393;53.556;49.216;2023-06-19T06:57:13;1.65;;;0.88;;
67564;SDS011;54393;53.556;49.216;2023-06-19T06:59:39;0.70;;;0.70;;
67564;SDS011;54393;53.556;49.216;2023-06-19T07:02:06;0.70;;;0.70;;
67564;SDS011;54393;53.556;49.216;2023-06-19T07:04:32;1.25;;;1.15;;
67564;SDS011;54393;53.556;49.216;2023-06-19T07:06:59;0.90;;;0.90;;
67564;SDS011;54393;53.556;49.216;2023-06-19T07:09:25;1.98;;;1.00;;
67564;SDS011;54393;53.556;49.216;2023-06-19T07:11:52;1.77;;;1.00;;
67564;SDS011;54393;53.556;49.216;2023-06-19T07:14:18;1.02;;;0.80;;
67564;SDS011;54393;53.556;49.216;2023-06-19T07:16:45;1.30;;;1.05;;
67564;SDS011;54393;53.556;49.216;2023-06-19T07:19:12;2.05;;;1.15;;
67564;SDS011;54393;53.556;49.216;2023-06-19T07:21:38;0.73;;;0.70;;
67564;SDS011;54393;53.556;49.216;2023-06-19T07:24:05;0.90;;;0.90;;
67564;SDS011;54393;53.556;49.216;2023-06-19T07:26:32;0.62;;;0.62;;
67564;SDS011;54393;53.556;49.216;2023-06-19T07:28:58;3.12;;;1.23;;
67564;SDS011;54393;53.556;49.216;2023-06-19T07:31:25;1.10;;;0.95;;
67564;SDS011;54393;53.556;49.216;2023-06-19T07:33:52;2.00;;;1.35;;
67564;SDS011;54393;53.556;49.216;2023-06-19T07:36:18;0.80;;;0.80;;
67564;SDS011;54393;53.556;49.216;2023-06-19T07:38:45;1.48;;;0.95;;
67564;SDS011;54393;53.556;49.216;2023-06-19T07:41:11;1.42;;;0.88;;
67564;SDS011;54393;53.556;49.216;2023-06-19T07:43:38;1.20;;;1.10;;
67564;SDS011;54393;53.556;49.216;2023-06-19T07:46:04;0.80;;;0.80;;
67564;SDS011;54393;53.556;49.216;2023-06-19T07:48:31;1.65;;;1.00;;
67564;SDS011;54393;53.556;49.216;2023-06-19T07:50:57;1.30;;;0.75;;
67564;SDS011;54393;53.556;49.216;2023-06-19T07:53:24;2.58;;;1.02;;
67564;SDS011;54393;53.556;49.216;2023-06-19T07:55:50;1.05;;;0.70;;
67564;SDS011;54393;53.556;49.216;2023-06-19T07:58:16;3.80;;;1.30;;
67564;SDS011;54393;53.556;49.216;2023-06-19T08:00:43;0.90;;;0.90;;
67564;SDS011;54393;53.556;49.216;2023-06-19T08:03:10;1.75;;;0.93;;
67564;SDS011;54393;53.556;49.216;2023-06-19T08:05:36;1.37;;;1.27;;
67564;SDS011;54393;53.556;49.216;2023-06-19T08:08:03;1.27;;;0.95;;
67564;SDS011;54393;53.556;49.216;2023-06-19T08:10:30;1.35;;;0.95;;
67564;SDS011;54393;53.556;49.216;2023-06-19T08:12:56;1.70;;;1.10;;
67564;SDS011;54393;53.556;49.216;2023-06-19T08:15:22;1.15;;;1.05;;
67564;SDS011;54393;53.556;49.216;2023-06-19T08:17:49;0.95;;;0.95;;
67564;SDS011;54393;53.556;49.216;2023-06-19T08:20:15;0.75;;;0.75;;
67564;SDS011;54393;53.556;49.216;2023-06-19T08:22:42;2.28;;;1.00;;
67564;SDS011;54393;53.556;49.216;2023-06-19T08:25:10;1.48;;;0.93;;
67564;SDS011;54393;53.556;49.216;2023-06-19T08:27:37;1.10;;;1.00;;
67564;SDS011;54393;53.556;49.216;2023-06-19T08:30:03;2.67;;;1.30;;
67564;SDS011;54393;53.556;49.216;2023-06-19T08:32:30;1.73;;;0.90;;
67564;SDS011;54393;53.556;49.216;2023-06-19T08:34:56;0.80;;;0.80;;
67564;SDS011;54393;53.556;49.216;2023-06-19T08:37:23;0.82;;;0.82;;
67564;SDS011;54393;53.556;49.216;2023-06-19T08:39:49;1.67;;;1.10;;
67564;SDS011;54393;53.556;49.216;2023-06-19T08:42:16;0.95;;;0.75;;
67564;SDS011;54393;53.556;49.216;2023-06-19T08:44:42;0.93;;;0.93;;
67564;SDS011;54393;53.556;49.216;2023-06-19T08:47:09;2.03;;;1.20;;
67564;SDS011;54393;53.556;49.216;2023-06-19T08:49:35;1.15;;;0.82;;
67564;SDS011;54393;53.556;49.216;2023-06-19T08:52:02;2.33;;;0.80;;
67564;SDS011;54393;53.556;49.216;2023-06-19T08:54:29;1.00;;;0.90;;
67564;SDS011;54393;53.556;49.216;2023-06-19T08:57:00;1.15;;;1.05;;
67564;SDS011;54393;53.556;49.216;2023-06-19T08:59:26;2.28;;;1.10;;
67564;SDS011;54393;53.556;49.216;2023-06-19T09:01:56;1.20;;;1.00;;
67564;SDS011;54393;53.556;49.216;2023-06-19T09:04:24;0.93;;;0.80;;
67564;SDS011;54393;53.556;49.216;2023-06-19T09:06:57;1.02;;;1.00;;
67564;SDS011;54393;53.556;49.216;2023-06-19T09:09:25;1.27;;;1.00;;
67564;SDS011;54393;53.556;49.216;2023-06-19T09:12:08;2.25;;;1.10;;
67564;SDS011;54393;53.556;49.216;2023-06-19T09:14:38;1.90;;;0.98;;
67564;SDS011;54393;53.556;49.216;2023-06-19T09:17:06;0.93;;;0.90;;
67564;SDS011;54393;53.556;49.216;2023-06-19T09:19:35;2.05;;;1.20;;
67564;SDS011;54393;53.556;49.216;2023-06-19T09:22:02;2.97;;;1.50;;
67564;SDS011;54393;53.556;49.216;2023-06-19T09:24:37;3.30;;;1.20;;
67564;SDS011;54393;53.556;49.216;2023-06-19T09:27:08;1.90;;;1.05;;
67564;SDS011;54393;53.556;49.216;2023-06-19T09:29:42;2.90;;;1.33;;
67564;SDS011;54393;53.556;49.216;2023-06-19T09:32:25;3.37;;;1.27;;
67564;SDS011;54393;53.556;49.216;2023-06-19T09:34:56;1.40;;;1.20;;
67564;SDS011;54393;53.556;49.216;2023-06-19T09:37:26;3.92;;;1.20;;
67564;SDS011;54393;53.556;49.216;2023-06-19T09:39:55;3.05;;;1.30;;
67564;SDS011;54393;53.556;49.216;2023-06-19T09:42:37;2.60;;;1.10;;
67564;SDS011;54393;53.556;49.216;2023-06-19T09:45:06;2.62;;;1.15;;
67564;SDS011;54393;53.556;49.216;2023-06-19T09:47:44;6.18;;;1.40;;
67564;SDS011;54393;53.556;49.216;2023-06-19T09:50:12;3.15;;;1.20;;
67564;SDS011;54393;53.556;49.216;2023-06-19T09:52:39;1.70;;;1.20;;
67564;SDS011;54393;53.556;49.216;2023-06-19T09:55:07;1.80;;;0.95;;
67564;SDS011;54393;53.556;49.216;2023-06-19T09:57:38;1.75;;;1.52;;
67564;SDS011;54393;53.556;49.216;2023-06-19T10:00:07;1.23;;;1.12;;
67564;SDS011;54393;53.556;49.216;2023-06-19T10:02:39;1.98;;;1.17;;
67564;SDS011;54393;53.556;49.216;2023-06-19T10:05:05;0.95;;;0.90;;
67564;SDS011;54393;53.556;49.216;2023-06-19T10:07:37;2.05;;;1.02;;
67564;SDS011;54393;53.556;49.216;2023-06-19T10:10:09;1.70;;;0.90;;
67564;SDS011;54393;53.556;49.216;2023-06-19T10:12:41;2.65;;;0.90;;
67564;SDS011;54393;53.556;49.216;2023-06-19T10:15:18;2.40;;;1.25;;
67564;SDS011;54393;53.556;49.216;2023-06-19T10:18:19;2.47;;;1.37;;
67564;SDS011;54393;53.556;49.216;2023-06-19T10:20:41;1.80;;;1.10;;
67564;SDS011;54393;53.556;49.216;2023-06-19T10:23:10;1.33;;;1.00;;
67564;SDS011;54393;53.556;49.216;2023-06-19T10:25:38;2.70;;;0.93;;
67564;SDS011;54393;53.556;49.216;2023-06-19T10:28:19;2.45;;;1.00;;
67564;SDS011;54393;53.556;49.216;2023-06-19T10:33:21;2.70;;;0.98;;
67564;SDS011;54393;53.556;49.216;2023-06-19T10:35:48;2.47;;;1.15;;
67564;SDS011;54393;53.556;49.216;2023-06-19T10:38:15;2.25;;;1.08;;
67564;SDS011;54393;53.556;49.216;2023-06-19T10:40:42;2.60;;;1.00;;
67564;SDS011;54393;53.556;49.216;2023-06-19T10:43:10;1.40;;;1.00;;
67564;SDS011;54393;53.556;49.216;2023-06-19T10:45:37;2.55;;;1.20;;
67564;SDS011;54393;53.556;49.216;2023-06-19T10:48:04;1.15;;;1.00;;
67564;SDS011;54393;53.556;49.216;2023-06-19T10:50:34;2.97;;;1.37;;
67564;SDS011;54393;53.556;49.216;2023-06-19T10:53:03;2.58;;;1.00;;
67564;SDS011;54393;53.556;49.216;2023-06-19T10:55:30;1.02;;;0.98;;
67564;SDS011;54393;53.556;49.216;2023-06-19T10:57:56;1.95;;;1.40;;
67564;SDS011;54393;53.556;49.216;2023-06-19T11:00:30;1.27;;;1.15;;
67564;SDS011;54393;53.556;49.216;2023-06-19T11:05:25;1.15;;;0.85;;
67564;SDS011;54393;53.556;49.216;2023-06-19T11:07:53;1.55;;;1.20;;
67564;SDS011;54393;53.556;49.216;2023-06-19T11:10:24;1.15;;;1.05;;
67564;SDS011;54393;53.556;49.216;2023-06-19T11:12:56;1.42;;;1.10;;
67564;SDS011;54393;53.556;49.216;2023-06-19T11:15:41;2.60;;;0.90;;
67564;SDS011;54393;53.556;49.216;2023-06-19T11:18:08;1.10;;;1.05;;
67564;SDS011;54393;53.556;49.216;2023-06-19T11:20:48;0.90;;;0.85;;
67564;SDS011;54393;53.556;49.216;2023-06-19T11:23:16;3.53;;;1.10;;
67564;SDS011;54393;53.556;49.216;2023-06-19T11:25:53;1.45;;;0.90;;
67564;SDS011;54393;53.556;49.216;2023-06-19T11:28:22;2.28;;;1.02;;
67564;SDS011;54393;53.556;49.216;2023-06-19T11:30:57;3.53;;;1.17;;
67564;SDS011;54393;53.556;49.216;2023-06-19T11:33:24;2.00;;;1.10;;
67564;SDS011;54393;53.556;49.216;2023-06-19T11:35:52;2.33;;;0.90;;
67564;SDS011;54393;53.556;49.216;2023-06-19T11:38:19;1.33;;;0.73;;
67564;SDS011;54393;53.556;49.216;2023-06-19T11:40:46;1.35;;;1.15;;
67564;SDS011;54393;53.556;49.216;2023-06-19T11:43:23;3.37;;;1.17;;
67564;SDS011;54393;53.556;49.216;2023-06-19T11:45:59;1.77;;;1.10;;
67564;SDS011;54393;53.556;49.216;2023-06-19T11:48:30;0.88;;;0.88;;
67564;SDS011;54393;53.556;49.216;2023-06-19T11:50:57;1.90;;;1.25;;
67564;SDS011;54393;53.556;49.216;2023-06-19T11:53:24;0.95;;;0.95;;
67564;SDS011;54393;53.556;49.216;2023-06-19T11:55:51;0.93;;;0.90;;
67564;SDS011;54393;53.556;49.216;2023-06-19T11:58:17;4.03;;;1.10;;
67564;SDS011;54393;53.556;49.216;2023-06-19T12:00:49;2.55;;;1.30;;
67564;SDS011;54393;53.556;49.216;2023-06-19T12:03:15;3.72;;;1.08;;
67564;SDS011;54393;53.556;49.216;2023-06-19T12:05:42;1.75;;;1.25;;
67564;SDS011;54393;53.556;49.216;2023-06-19T12:08:08;4.35;;;1.27;;
67564;SDS011;54393;53.556;49.216;2023-06-19T12:10:35;2.07;;;1.33;;
67564;SDS011;54393;53.556;49.216;2023-06-19T12:13:01;2.45;;;1.17;;
67564;SDS011;54393;53.556;49.216;2023-06-19T12:15:31;1.73;;;1.10;;
67564;SDS011;54393;53.556;49.216;2023-06-19T12:17:58;1.25;;;1.15;;
67564;SDS011;54393;53.556;49.216;2023-06-19T12:20:24;1.02;;;0.80;;
67564;SDS011;54393;53.556;49.216;2023-06-19T12:22:51;0.65;;;0.65;;
67564;SDS011;54393;53.556;49.216;2023-06-19T12:25:18;2.08;;;1.20;;
67564;SDS011;54393;53.556;49.216;2023-06-19T12:27:44;1.05;;;0.90;;
67564;SDS011;54393;53.556;49.216;2023-06-19T12:30:11;2.58;;;1.45;;
67564;SDS011;54393;53.556;49.216;2023-06-19T12:32:38;3.10;;;1.33;;
67564;SDS011;54393;53.556;49.216;2023-06-19T12:35:04;2.42;;;1.15;;
67564;SDS011;54393;53.556;49.216;2023-06-19T12:37:34;3.58;;;1.20;;
67564;SDS011;54393;53.556;49.216;2023-06-19T12:40:00;1.95;;;1.42;;
67564;SDS011;54393;53.556;49.216;2023-06-19T12:42:33;3.15;;;1.45;;
67564;SDS011;54393;53.556;49.216;2023-06-19T12:44:59;2.58;;;1.30;;
67564;SDS011;54393;53.556;49.216;2023-06-19T12:47:26;3.00;;;1.40;;
67564;SDS011;54393;53.556;49.216;2023-06-19T12:49:52;2.72;;;1.60;;
67564;SDS011;54393;53.556;49.216;2023-06-19T12:52:18;4.22;;;1.52;;
67564;SDS011;54393;53.556;49.216;2023-06-19T12:54:45;2.67;;;1.55;;
67564;SDS011;54393;53.556;49.216;2023-06-19T12:57:11;5.57;;;1.90;;
67564;SDS011;54393;53.556;49.216;2023-06-19T12:59:38;1.83;;;1.55;;
67564;SDS011;54393;53.556;49.216;2023-06-19T13:02:05;5.62;;;1.70;;
67564;SDS011;54393;53.556;49.216;2023-06-19T13:04:31;8.48;;;2.05;;
67564;SDS011;54393;53.556;49.216;2023-06-19T13:06:58;4.18;;;1.80;;
67564;SDS011;54393;53.556;49.216;2023-06-19T13:09:24;2.92;;;1.77;;
67564;SDS011;54393;53.556;49.216;2023-06-19T13:11:51;7.60;;;1.87;;
67564;SDS011;54393;53.556;49.216;2023-06-19T13:14:17;5.80;;;1.60;;
67564;SDS011;54393;53.556;49.216;2023-06-19T13:16:44;3.80;;;1.83;;
67564;SDS011;54393;53.556;49.216;2023-06-19T13:19:10;2.62;;;1.87;;
67564;SDS011;54393;53.556;49.216;2023-06-19T13:21:37;5.85;;;1.83;;
67564;SDS011;54393;53.556;49.216;2023-06-19T13:24:03;3.55;;;1.83;;
67564;SDS011;54393;53.556;49.216;2023-06-19T13:26:30;2.65;;;2.00;;
67564;SDS011;54393;53.556;49.216;2023-06-19T13:28:56;4.15;;;1.67;;
67564;SDS011;54393;53.556;49.216;2023-06-19T13:31:24;4.40;;;2.00;;
67564;SDS011;54393;53.556;49.216;2023-06-19T13:33:51;5.37;;;1.90;;
67564;SDS011;54393;53.556;49.216;2023-06-19T13:36:17;5.62;;;1.60;;
67564;SDS011;54393;53.556;49.216;2023-06-19T13:38:45;3.72;;;1.60;;
67564;SDS011;54393;53.556;49.216;2023-06-19T13:41:12;4.03;;;1.83;;
67564;SDS011;54393;53.556;49.216;2023-06-19T13:43:38;4.82;;;1.50;;
67564;SDS011;54393;53.556;49.216;2023-06-19T13:46:05;3.00;;;1.83;;
67564;SDS011;54393;53.556;49.216;2023-06-19T13:48:32;5.40;;;1.80;;
67564;SDS011;54393;53.556;49.216;2023-06-19T13:50:59;5.80;;;1.75;;
67564;SDS011;54393;53.556;49.216;2023-06-19T13:53:26;6.40;;;2.00;;
67564;SDS011;54393;53.556;49.216;2023-06-19T13:55:54;5.95;;;1.80;;
67564;SDS011;54393;53.556;49.216;2023-06-19T13:58:21;5.10;;;2.10;;
67564;SDS011;54393;53.556;49.216;2023-06-19T14:00:48;3.17;;;1.83;;
67564;SDS011;54393;53.556;49.216;2023-06-19T14:03:14;3.45;;;1.95;;
67564;SDS011;54393;53.556;49.216;2023-06-19T14:05:41;4.72;;;1.70;;
67564;SDS011;54393;53.556;49.216;2023-06-19T14:08:08;2.42;;;1.55;;
67564;SDS011;54393;53.556;49.216;2023-06-19T14:10:34;2.25;;;1.30;;
67564;SDS011;54393;53.556;49.216;2023-06-19T14:13:01;5.60;;;1.90;;
67564;SDS011;54393;53.556;49.216;2023-06-19T14:15:27;5.90;;;1.87;;
67564;SDS011;54393;53.556;49.216;2023-06-19T14:17:54;3.97;;;1.55;;
67564;SDS011;54393;53.556;49.216;2023-06-19T14:20:20;1.92;;;1.55;;
67564;SDS011;54393;53.556;49.216;2023-06-19T14:22:47;4.70;;;2.12;;
67564;SDS011;54393;53.556;49.216;2023-06-19T14:25:13;2.22;;;1.67;;
67564;SDS011;54393;53.556;49.216;2023-06-19T14:27:40;4.47;;;1.60;;
67564;SDS011;54393;53.556;49.216;2023-06-19T14:30:06;3.50;;;1.90;;
67564;SDS011;54393;53.556;49.216;2023-06-19T14:32:34;3.70;;;1.52;;
67564;SDS011;54393;53.556;49.216;2023-06-19T14:35:02;3.42;;;1.45;;
67564;SDS011;54393;53.556;49.216;2023-06-19T14:37:29;2.03;;;1.35;;
67564;SDS011;54393;53.556;49.216;2023-06-19T14:39:56;2.92;;;1.90;;
67564;SDS011;54393;53.556;49.216;2023-06-19T14:42:23;2.12;;;1.50;;